Time;durP1;ratioP1;P1;durP2;ratioP2;P2;SDS_P1;SDS_P2;PMS_P1;PMS_P2;Temp;Humidity;BMP_temperature;BMP_pressure;BME280_temperature;BME280_humidity;BME280_pressure;Samples;Min_cycle;Max_cycle;Signal;HPM_P1;HPM_P2
2023/06/07 00:03:28;;;;;;;6.28;2.78;;;17.90;79.30;;;;;;10490205;28;20431;-70
2023/06/07 00:08:29;;;;;;;7.35;2.90;;;17.80;79.30;;;;;;10473237;28;20032;-70
2023/06/07 00:13:30;;;;;;;3.63;2.50;;;17.90;79.30;;;;;;10496071;28;20024;-70
2023/06/07 00:18:31;;;;;;;5.05;2.50;;;17.90;79.30;;;;;;10479701;28;20021;-70
2023/06/07 00:23:32;;;;;;;4.97;2.72;;;17.80;79.20;;;;;;10477341;28;20016;-70
2023/06/07 00:28:33;;;;;;;5.82;2.80;;;17.70;79.20;;;;;;10482278;28;20032;-70
2023/06/07 00:33:33;;;;;;;4.57;2.47;;;17.70;79.20;;;;;;10475444;28;20385;-71
2023/06/07 00:38:34;;;;;;;4.40;3.05;;;17.70;79.20;;;;;;10487895;28;20569;-71
2023/06/07 00:43:34;;;;;;;3.85;2.30;;;17.60;79.20;;;;;;10478144;28;20635;-70
2023/06/07 00:48:35;;;;;;;4.50;2.28;;;17.60;79.20;;;;;;10467828;28;20070;-70
2023/06/07 00:53:36;;;;;;;6.90;2.60;;;17.50;79.10;;;;;;10476699;28;20020;-71
2023/06/07 00:58:40;;;;;;;6.93;2.80;;;17.60;79.20;;;;;;10471019;28;20508;-70
2023/06/07 01:03:41;;;;;;;5.20;2.60;;;17.50;79.10;;;;;;10484949;28;20492;-71
2023/06/07 01:08:43;;;;;;;5.18;2.35;;;17.50;79.20;;;;;;10492396;28;20024;-70
2023/06/07 01:13:43;;;;;;;6.07;2.47;;;17.50;79.20;;;;;;10481691;28;20523;-71
2023/06/07 01:18:46;;;;;;;5.80;3.08;;;17.40;79.70;;;;;;10473814;28;20104;-70
2023/06/07 01:23:48;;;;;;;4.97;2.38;;;17.40;79.10;;;;;;10483307;28;20103;-70
2023/06/07 01:28:49;;;;;;;7.53;2.80;;;17.30;79.10;;;;;;10473692;28;20025;-70
2023/06/07 01:33:51;;;;;;;5.35;2.70;;;17.30;79.10;;;;;;10485564;28;20021;-70
2023/06/07 01:38:59;;;;;;;6.60;2.50;;;17.30;79.10;;;;;;10500387;28;20024;-70
2023/06/07 01:44:00;;;;;;;5.00;2.55;;;17.20;79.00;;;;;;10480519;28;20641;-70
2023/06/07 01:49:03;;;;;;;6.53;2.55;;;17.20;79.10;;;;;;10488930;28;20016;-70
2023/06/07 01:54:05;;;;;;;4.78;2.65;;;17.20;79.10;;;;;;10487720;28;20290;-70
2023/06/07 01:59:05;;;;;;;6.95;2.90;;;17.20;79.10;;;;;;10491580;28;20472;-70
2023/06/07 02:04:11;;;;;;;5.00;2.45;;;17.10;79.00;;;;;;10488353;28;20032;-70
2023/06/07 02:09:13;;;;;;;6.07;2.60;;;17.10;79.00;;;;;;10480040;28;20090;-71
2023/06/07 02:14:15;;;;;;;5.93;2.50;;;17.10;79.10;;;;;;10477490;28;20031;-70
2023/06/07 02:19:16;;;;;;;5.70;2.22;;;17.00;79.00;;;;;;10482462;28;20028;-70
2023/06/07 02:24:17;;;;;;;5.05;2.63;;;17.00;79.00;;;;;;10487718;28;20024;-70
2023/06/07 02:29:17;;;;;;;5.18;2.67;;;17.00;79.00;;;;;;10481518;28;20032;-70
2023/06/07 02:34:18;;;;;;;5.32;2.63;;;17.00;79.00;;;;;;10485489;28;20059;-70
2023/06/07 02:39:19;;;;;;;5.60;2.72;;;17.00;79.00;;;;;;10482773;28;20047;-70
2023/06/07 02:44:19;;;;;;;7.40;2.65;;;16.90;79.00;;;;;;10489153;28;20024;-70
2023/06/07 02:49:20;;;;;;;3.97;2.50;;;16.80;79.00;;;;;;10487495;28;20043;-70
2023/06/07 02:54:20;;;;;;;5.18;3.00;;;16.80;79.00;;;;;;10480253;28;20082;-70
2023/06/07 02:59:21;;;;;;;3.70;2.28;;;16.80;79.00;;;;;;10480418;28;20036;-70
2023/06/07 03:04:22;;;;;;;5.95;2.30;;;16.80;79.00;;;;;;10496125;28;20370;-69
2023/06/07 03:09:23;;;;;;;8.38;2.90;;;16.80;79.10;;;;;;10485910;28;20054;-69
2023/06/07 03:14:24;;;;;;;5.22;2.65;;;16.70;79.00;;;;;;10489930;28;20112;-69
2023/06/07 03:19:24;;;;;;;4.18;2.20;;;16.70;79.00;;;;;;10487215;28;20732;-69
2023/06/07 03:24:28;;;;;;;5.35;2.80;;;16.70;79.00;;;;;;10477241;28;20119;-69
2023/06/07 03:29:30;;;;;;;6.85;2.72;;;16.70;79.10;;;;;;10488787;28;20082;-69
2023/06/07 03:34:32;;;;;;;5.93;2.70;;;16.60;79.10;;;;;;10483657;28;20066;-69
2023/06/07 03:39:33;;;;;;;6.15;2.53;;;16.50;79.00;;;;;;10478179;28;20410;-68
2023/06/07 03:44:33;;;;;;;6.80;2.75;;;16.60;79.10;;;;;;10487440;28;20115;-69
2023/06/07 03:49:34;;;;;;;5.57;2.80;;;16.60;79.10;;;;;;10481150;28;20031;-69
2023/06/07 03:54:34;;;;;;;5.88;3.17;;;16.50;79.10;;;;;;10472794;28;20029;-69
2023/06/07 03:59:36;;;;;;;5.68;2.70;;;16.50;79.10;;;;;;10479446;28;20024;-69
2023/06/07 04:04:36;;;;;;;4.43;2.25;;;16.50;79.10;;;;;;10474695;28;20018;-69
2023/06/07 04:09:37;;;;;;;5.72;2.53;;;16.50;79.10;;;;;;10488679;28;20020;-69
2023/06/07 04:14:38;;;;;;;6.10;2.30;;;16.40;79.10;;;;;;10473333;28;20025;-69
2023/06/07 04:19:38;;;;;;;5.05;2.65;;;16.50;79.20;;;;;;10483794;28;20064;-68
2023/06/07 04:24:39;;;;;;;3.10;2.08;;;16.40;79.10;;;;;;10484143;28;20031;-69
2023/06/07 04:29:40;;;;;;;4.30;2.22;;;16.40;79.20;;;;;;10485663;28;20024;-68
2023/06/07 04:34:41;;;;;;;4.10;2.00;;;16.50;79.30;;;;;;10485082;28;20497;-69
2023/06/07 04:39:48;;;;;;;7.43;2.70;;;16.40;79.20;;;;;;10476285;28;20024;-69
2023/06/07 04:44:52;;;;;;;3.60;1.92;;;16.40;79.20;;;;;;10480142;28;20481;-69
2023/06/07 04:49:53;;;;;;;4.10;2.35;;;16.40;79.30;;;;;;10488287;28;20312;-69
2023/06/07 04:54:56;;;;;;;5.53;2.47;;;16.30;79.20;;;;;;10478564;28;20538;-69
2023/06/07 04:59:59;;;;;;;4.32;2.47;;;16.30;79.40;;;;;;10488712;28;20021;-69
2023/06/07 05:05:00;;;;;;;7.65;2.78;;;16.40;79.50;;;;;;10475667;28;20020;-68
2023/06/07 05:10:00;;;;;;;5.43;2.33;;;16.30;79.40;;;;;;10479909;28;20038;-69
2023/06/07 05:15:01;;;;;;;4.65;2.03;;;16.40;79.50;;;;;;10480936;28;20028;-68
2023/06/07 05:20:08;;;;;;;6.53;2.22;;;16.30;79.40;;;;;;10473755;28;20028;-69
2023/06/07 05:25:11;;;;;;;8.75;2.15;;;16.40;79.50;;;;;;10467381;28;20052;-69
2023/06/07 05:30:15;;;;;;;6.32;2.90;;;16.40;79.40;;;;;;10468929;28;20468;-68
2023/06/07 05:35:17;;;;;;;6.13;2.15;;;16.40;79.40;;;;;;10471602;28;20027;-68
2023/06/07 05:40:18;;;;;;;3.50;1.88;;;16.40;79.40;;;;;;10478989;28;20060;-68
2023/06/07 05:45:18;;;;;;;4.93;2.15;;;16.40;79.50;;;;;;10468631;28;20025;-68
2023/06/07 05:50:20;;;;;;;4.82;2.10;;;16.40;79.50;;;;;;10473379;28;20404;-69
2023/06/07 05:55:21;;;;;;;4.63;1.77;;;16.40;79.50;;;;;;10477432;28;20031;-68
2023/06/07 06:00:22;;;;;;;4.75;2.00;;;16.40;79.60;;;;;;10477024;28;20032;-68
2023/06/07 06:05:27;;;;;;;4.10;1.80;;;16.40;79.60;;;;;;10472510;28;20115;-68
2023/06/07 06:10:27;;;;;;;4.18;1.92;;;16.40;79.60;;;;;;10491789;28;20032;-69
2023/06/07 06:15:28;;;;;;;5.07;1.52;;;16.40;79.60;;;;;;10480819;28;20033;-69
2023/06/07 06:20:33;;;;;;;4.50;1.88;;;16.40;79.60;;;;;;10480248;28;20400;-69
2023/06/07 06:25:34;;;;;;;4.05;1.80;;;16.40;79.60;;;;;;10482564;28;20033;-69
2023/06/07 06:30:34;;;;;;;3.70;1.80;;;16.40;79.60;;;;;;10476140;28;20020;-69
2023/06/07 06:35:35;;;;;;;4.18;1.77;;;16.50;79.60;;;;;;10479594;28;20061;-68
2023/06/07 06:40:36;;;;;;;4.35;2.05;;;16.50;79.60;;;;;;10476271;28;20040;-68
2023/06/07 06:45:36;;;;;;;3.67;2.05;;;16.50;79.60;;;;;;10471384;28;20042;-68
2023/06/07 06:50:37;;;;;;;4.90;2.25;;;16.50;79.50;;;;;;10476591;28;20520;-69
2023/06/07 06:55:37;;;;;;;3.17;1.58;;;16.50;80.10;;;;;;10481920;28;20073;-68
2023/06/07 07:00:38;;;;;;;4.32;1.60;;;16.60;79.50;;;;;;10474152;28;20035;-68
2023/06/07 07:05:39;;;;;;;4.30;2.50;;;16.70;79.50;;;;;;10481138;28;20028;-68
2023/06/07 07:10:40;;;;;;;4.43;1.95;;;16.60;79.50;;;;;;10485343;28;20029;-68
2023/06/07 07:15:40;;;;;;;5.10;1.83;;;16.70;79.60;;;;;;10479162;28;20021;-68
2023/06/07 07:20:41;;;;;;;6.00;1.80;;;16.60;79.70;;;;;;10482502;28;20107;-68
2023/06/07 07:25:42;;;;;;;4.90;2.10;;;16.60;79.70;;;;;;10478165;28;20424;-69
2023/06/07 07:30:42;;;;;;;2.72;1.60;;;16.60;79.80;;;;;;10473962;28;20024;-68
2023/06/07 07:35:43;;;;;;;4.63;1.80;;;16.60;79.90;;;;;;10481863;28;20112;-68
2023/06/07 07:40:44;;;;;;;5.18;1.58;;;16.60;80.00;;;;;;10478476;28;20032;-68
2023/06/07 07:45:44;;;;;;;3.75;1.70;;;16.60;80.00;;;;;;10477938;28;20031;-68
2023/06/07 07:50:45;;;;;;;3.85;1.60;;;16.70;80.10;;;;;;10483910;28;20025;-68
2023/06/07 07:55:46;;;;;;;4.95;1.67;;;16.70;80.20;;;;;;10475797;28;20023;-68
2023/06/07 08:00:46;;;;;;;5.28;2.00;;;16.70;80.20;;;;;;10478128;28;20029;-68
2023/06/07 08:05:47;;;;;;;4.82;1.70;;;16.70;80.30;;;;;;10469603;28;20112;-69
2023/06/07 08:10:48;;;;;;;3.63;1.63;;;16.70;80.30;;;;;;10480898;28;20032;-68
2023/06/07 08:15:49;;;;;;;4.03;1.73;;;16.80;80.30;;;;;;10481672;28;20377;-69
2023/06/07 08:20:50;;;;;;;4.32;1.83;;;16.80;80.30;;;;;;10478997;28;20028;-69
2023/06/07 08:25:50;;;;;;;2.50;1.70;;;16.80;80.30;;;;;;10477497;28;20099;-68
2023/06/07 08:30:51;;;;;;;5.43;2.25;;;16.90;80.30;;;;;;10497590;28;20054;-69
2023/06/07 08:35:52;;;;;;;4.47;1.60;;;16.90;80.30;;;;;;10478822;28;20551;-69
2023/06/07 08:40:56;;;;;;;2.72;1.42;;;16.90;80.30;;;;;;10482859;28;20033;-68
2023/06/07 08:45:58;;;;;;;4.40;1.63;;;17.00;80.30;;;;;;10483436;28;20399;-69
2023/06/07 08:51:01;;;;;;;3.55;1.75;;;17.10;80.30;;;;;;10478030;28;20045;-68
2023/06/07 08:56:02;;;;;;;4.45;1.98;;;17.00;80.20;;;;;;10481616;28;20021;-69
2023/06/07 09:01:03;;;;;;;4.07;1.67;;;17.10;80.20;;;;;;10487274;28;20473;-68
2023/06/07 09:06:04;;;;;;;3.47;1.70;;;17.10;80.20;;;;;;10486119;28;20028;-70
2023/06/07 09:11:04;;;;;;;5.13;1.80;;;17.10;80.20;;;;;;10476950;28;20025;-70
2023/06/07 09:16:05;;;;;;;3.42;1.60;;;17.20;80.20;;;;;;10473102;28;20031;-70
2023/06/07 09:21:19;;;;;;;5.00;2.00;;;17.20;80.20;;;;;;10478676;28;20491;-70
2023/06/07 09:26:25;;;;;;;4.20;1.90;;;17.30;80.30;;;;;;10496121;28;20023;-69
2023/06/07 09:31:30;;;;;;;5.47;2.15;;;17.30;80.20;;;;;;10485360;28;20029;-70
2023/06/07 09:36:30;;;;;;;4.30;1.63;;;17.40;80.30;;;;;;10493866;28;20024;-69
2023/06/07 09:41:32;;;;;;;3.85;2.22;;;17.40;80.20;;;;;;10480950;28;20518;-70
2023/06/07 09:46:36;;;;;;;4.85;1.98;;;17.40;80.20;;;;;;10490506;28;20013;-69
2023/06/07 09:51:42;;;;;;;5.82;1.75;;;17.50;80.30;;;;;;10484113;28;20025;-71
2023/06/07 09:56:43;;;;;;;4.68;2.00;;;17.50;80.20;;;;;;10496194;28;20028;-69
2023/06/07 10:01:47;;;;;;;4.65;1.70;;;17.60;80.20;;;;;;10501561;28;20037;-70
2023/06/07 10:06:51;;;;;;;2.83;1.73;;;17.70;80.20;;;;;;10496654;28;20424;-70
2023/06/07 10:11:55;;;;;;;5.63;1.90;;;17.70;80.30;;;;;;10486678;28;20385;-70
2023/06/07 10:17:03;;;;;;;3.80;1.73;;;17.70;80.20;;;;;;10495842;28;20416;-69
2023/06/07 10:22:08;;;;;;;4.45;1.77;;;17.80;80.20;;;;;;10486530;28;20399;-70
2023/06/07 10:27:16;;;;;;;3.85;1.90;;;17.90;80.20;;;;;;10481535;28;20106;-70
2023/06/07 10:32:24;;;;;;;5.70;2.13;;;17.90;80.20;;;;;;10498725;28;20028;-70
2023/06/07 10:37:30;;;;;;;4.30;1.80;;;18.00;80.20;;;;;;10475899;28;20107;-70
2023/06/07 10:42:33;;;;;;;5.13;2.47;;;18.00;80.10;;;;;;10474889;28;20021;-70
2023/06/07 10:47:33;;;;;;;3.55;2.20;;;18.10;80.20;;;;;;10475881;28;20535;-69
2023/06/07 10:52:54;;;;;;;4.35;2.30;;;18.20;80.30;;;;;;10471095;28;20075;-69
2023/06/07 10:57:56;;;;;;;4.10;2.20;;;18.30;80.60;;;;;;10476558;28;20082;-69
2023/06/07 11:03:09;;;;;;;5.22;2.47;;;18.30;80.20;;;;;;10474560;28;20091;-70
2023/06/07 11:08:29;;;;;;;6.82;2.72;;;18.30;80.40;;;;;;10478610;28;20037;-70
2023/06/07 11:13:59;;;;;;;8.52;2.53;;;18.40;80.50;;;;;;10480555;28;20036;-69
2023/06/07 11:19:05;;;;;;;6.07;2.25;;;18.50;80.40;;;;;;10482518;28;20052;-70
2023/06/07 11:24:12;;;;;;;5.65;2.13;;;18.60;80.20;;;;;;10477739;28;20012;-70
2023/06/07 11:29:15;;;;;;;7.78;2.08;;;18.60;80.20;;;;;;10479447;28;20028;-70
2023/06/07 11:34:16;;;;;;;4.72;2.00;;;18.70;80.00;;;;;;10479480;28;20037;-70
2023/06/07 11:39:19;;;;;;;7.95;3.10;;;18.80;80.00;;;;;;10462646;28;20492;-71
2023/06/07 11:44:21;;;;;;;5.30;2.58;;;18.90;79.90;;;;;;10472703;28;20027;-70
2023/06/07 11:49:23;;;;;;;5.25;2.40;;;19.00;79.80;;;;;;10479037;28;20020;-69
2023/06/07 11:54:25;;;;;;;2.78;2.30;;;19.10;79.90;;;;;;10473381;28;20103;-70
2023/06/07 11:59:26;;;;;;;5.38;2.40;;;19.10;79.80;;;;;;10470913;28;20126;-70
2023/06/07 12:04:27;;;;;;;6.32;2.42;;;19.20;79.80;;;;;;10471094;28;20082;-70
2023/06/07 12:09:40;;;;;;;4.32;2.53;;;19.30;79.70;;;;;;10485800;28;20086;-70
2023/06/07 12:14:40;;;;;;;4.95;2.53;;;19.40;79.80;;;;;;10481209;28;20032;-71
2023/06/07 12:19:41;;;;;;;3.90;2.22;;;19.40;79.70;;;;;;10471862;28;20097;-70
2023/06/07 12:24:47;;;;;;;5.00;2.22;;;19.50;79.70;;;;;;10463251;28;20025;-70
2023/06/07 12:29:53;;;;;;;2.92;2.10;;;19.50;79.80;;;;;;10479846;28;20024;-70
2023/06/07 12:34:59;;;;;;;10.60;3.35;;;19.50;79.70;;;;;;10467384;28;20107;-70
2023/06/07 12:39:59;;;;;;;8.27;3.22;;;19.90;79.70;;;;;;10469385;28;20076;-71
2023/06/07 12:45:01;;;;;;;9.43;3.17;;;20.80;78.20;;;;;;10477381;28;20420;-70
2023/06/07 12:50:03;;;;;;;8.00;3.22;;;21.30;77.10;;;;;;10475892;28;20032;-70
2023/06/07 12:55:05;;;;;;;8.00;3.22;;;21.60;76.20;;;;;;10474293;28;20032;-70
2023/06/07 13:00:06;;;;;;;9.60;3.40;;;21.70;76.10;;;;;;10472754;28;20063;-70
2023/06/07 13:05:09;;;;;;;8.95;3.42;;;21.70;76.60;;;;;;10478676;28;20028;-69
2023/06/07 13:10:10;;;;;;;6.05;3.20;;;21.70;75.90;;;;;;10462265;28;20056;-70
2023/06/07 13:15:11;;;;;;;9.05;3.70;;;21.80;75.90;;;;;;10475089;28;20025;-71
2023/06/07 13:20:12;;;;;;;9.98;4.28;;;21.80;75.70;;;;;;10483223;28;20040;-70
2023/06/07 13:25:13;;;;;;;10.77;3.40;;;22.10;75.90;;;;;;10474382;28;20115;-70
2023/06/07 13:30:14;;;;;;;7.13;3.67;;;22.40;74.70;;;;;;10477484;28;20025;-70
2023/06/07 13:35:15;;;;;;;11.18;3.60;;;22.50;74.40;;;;;;10475283;28;20031;-70
2023/06/07 13:40:16;;;;;;;6.13;3.00;;;22.70;74.00;;;;;;10475515;28;20021;-70
2023/06/07 13:45:17;;;;;;;6.85;3.60;;;22.80;74.10;;;;;;10470970;28;20034;-70
2023/06/07 13:50:17;;;;;;;7.88;3.55;;;23.00;74.00;;;;;;10472047;28;20219;-71
2023/06/07 13:55:18;;;;;;;9.55;4.32;;;23.20;73.60;;;;;;10479709;28;20570;-71
2023/06/07 14:00:19;;;;;;;9.88;3.75;;;23.20;73.10;;;;;;10473414;28;20033;-71
2023/06/07 14:05:20;;;;;;;8.35;3.72;;;23.40;72.80;;;;;;10477398;28;20029;-71
2023/06/07 14:10:20;;;;;;;9.80;3.92;;;23.40;72.60;;;;;;10482549;28;20029;-72
2023/06/07 14:15:21;;;;;;;8.00;3.47;;;23.40;73.10;;;;;;10482080;28;20028;-72
2023/06/07 14:20:23;;;;;;;6.00;3.40;;;23.40;72.30;;;;;;10481789;28;20408;-73
2023/06/07 14:25:23;;;;;;;12.65;4.63;;;23.40;72.10;;;;;;10480634;28;20039;-72
2023/06/07 14:30:25;;;;;;;6.95;3.58;;;23.50;72.10;;;;;;10472648;28;20606;-70
2023/06/07 14:35:26;;;;;;;10.10;5.38;;;23.70;71.90;;;;;;10479710;28;20020;-72
2023/06/07 14:40:27;;;;;;;40.65;17.13;;;23.80;71.20;;;;;;10477223;28;20585;-71
2023/06/07 14:45:27;;;;;;;14.35;6.68;;;23.80;70.80;;;;;;10481082;28;20032;-70
2023/06/07 14:50:28;;;;;;;13.10;6.30;;;23.70;70.50;;;;;;10477392;28;20024;-70
2023/06/07 14:55:29;;;;;;;11.98;6.20;;;23.70;70.80;;;;;;10476346;28;20025;-71
2023/06/07 15:00:31;;;;;;;9.20;4.50;;;23.80;70.50;;;;;;10480520;28;20511;-72
2023/06/07 15:05:33;;;;;;;7.05;4.45;;;23.80;70.50;;;;;;10485855;28;20464;-71
2023/06/07 15:10:34;;;;;;;9.68;3.88;;;23.80;70.30;;;;;;10480882;28;20032;-74
2023/06/07 15:15:35;;;;;;;10.43;3.95;;;23.90;70.20;;;;;;10476040;28;20067;-74
2023/06/07 15:20:36;;;;;;;6.57;3.72;;;23.70;70.40;;;;;;10478200;28;20025;-73
2023/06/07 15:25:36;;;;;;;9.90;3.58;;;23.80;70.20;;;;;;10486910;28;20484;-72
2023/06/07 15:30:40;;;;;;;10.55;4.75;;;23.50;69.90;;;;;;10476703;28;20051;-72
2023/06/07 15:35:41;;;;;;;9.80;3.88;;;23.50;70.40;;;;;;10485912;28;20031;-72
2023/06/07 15:40:42;;;;;;;7.07;3.42;;;23.60;70.10;;;;;;10482411;28;20029;-72
2023/06/07 15:45:43;;;;;;;10.50;3.72;;;23.40;70.00;;;;;;10483569;28;20021;-72
2023/06/07 15:50:43;;;;;;;9.98;3.97;;;23.10;70.50;;;;;;10481796;28;20021;-72
2023/06/07 15:55:45;;;;;;;9.30;3.97;;;22.90;70.90;;;;;;10487677;28;20332;-72
2023/06/07 16:00:47;;;;;;;6.43;3.95;;;22.80;71.40;;;;;;10484748;28;20644;-73
2023/06/07 16:05:48;;;;;;;7.18;3.70;;;22.60;71.70;;;;;;10478061;28;20119;-71
2023/06/07 16:10:49;;;;;;;9.40;4.00;;;22.30;72.10;;;;;;10471266;28;20032;-71
2023/06/07 16:15:53;;;;;;;9.60;4.65;;;22.10;72.80;;;;;;10478055;28;20021;-71
2023/06/07 16:20:54;;;;;;;13.93;4.50;;;22.00;72.80;;;;;;10478420;28;20054;-71
2023/06/07 16:25:55;;;;;;;8.40;4.15;;;21.90;72.80;;;;;;10476057;28;20036;-70
2023/06/07 16:30:55;;;;;;;9.00;3.88;;;21.60;73.10;;;;;;10482979;28;20063;-70
2023/06/07 16:35:56;;;;;;;10.15;4.15;;;21.40;73.10;;;;;;10478423;28;20021;-72
2023/06/07 16:40:56;;;;;;;8.60;4.28;;;21.20;73.40;;;;;;10482840;28;20107;-72
2023/06/07 16:45:57;;;;;;;8.70;3.80;;;21.10;73.70;;;;;;10477621;28;20032;-67
2023/06/07 16:50:58;;;;;;;8.50;3.38;;;21.20;74.00;;;;;;10478363;28;20372;-66
2023/06/07 16:55:58;;;;;;;7.88;3.28;;;21.40;73.90;;;;;;10474666;28;20021;-65
2023/06/07 17:00:59;;;;;;;9.18;3.35;;;21.50;73.90;;;;;;10467026;28;20035;-67
2023/06/07 17:06:00;;;;;;;8.48;3.17;;;21.70;74.00;;;;;;10471253;28;20031;-67
2023/06/07 17:11:02;;;;;;;9.75;4.25;;;21.80;74.00;;;;;;10464962;28;20025;-68
2023/06/07 17:16:03;;;;;;;4.40;2.70;;;21.90;74.20;;;;;;10479745;28;20499;-67
2023/06/07 17:21:06;;;;;;;5.22;3.15;;;22.00;74.40;;;;;;10475527;28;20021;-67
2023/06/07 17:26:08;;;;;;;7.18;3.65;;;22.00;74.50;;;;;;10468566;28;20056;-67
2023/06/07 17:31:09;;;;;;;6.20;3.13;;;22.00;74.60;;;;;;10469820;28;20610;-67
2023/06/07 17:36:10;;;;;;;5.85;3.15;;;22.00;74.70;;;;;;10479248;28;20074;-66
2023/06/07 17:41:11;;;;;;;5.03;3.38;;;21.90;74.90;;;;;;10481511;28;20123;-67
2023/06/07 17:46:11;;;;;;;5.13;3.10;;;22.00;75.10;;;;;;10477195;28;20368;-67
2023/06/07 17:51:12;;;;;;;5.70;3.05;;;22.00;75.30;;;;;;10486942;28;20039;-67
2023/06/07 17:56:12;;;;;;;7.15;2.95;;;21.90;75.40;;;;;;10474764;28;20024;-67
2023/06/07 18:01:13;;;;;;;4.00;2.67;;;21.80;75.60;;;;;;10489572;28;20016;-67
2023/06/07 18:06:14;;;;;;;4.55;2.80;;;21.80;75.70;;;;;;10484785;28;20112;-67
2023/06/07 18:11:14;;;;;;;6.78;3.08;;;21.80;75.80;;;;;;10483572;28;20419;-67
2023/06/07 18:16:15;;;;;;;4.35;2.80;;;21.80;75.90;;;;;;10484672;28;20028;-66
2023/06/07 18:21:15;;;;;;;9.00;3.42;;;21.70;76.00;;;;;;10481334;28;20508;-67
2023/06/07 18:26:16;;;;;;;7.13;3.03;;;21.60;76.00;;;;;;10480919;28;20028;-67
2023/06/07 18:31:17;;;;;;;5.63;3.10;;;21.60;76.20;;;;;;10487276;28;20468;-65
2023/06/07 18:36:17;;;;;;;7.40;3.42;;;21.60;76.30;;;;;;10479410;28;20020;-72
2023/06/07 18:41:18;;;;;;;11.52;4.20;;;21.50;76.00;;;;;;10480590;28;20040;-72
2023/06/07 18:46:19;;;;;;;10.90;3.38;;;20.80;76.30;;;;;;10472702;28;20033;-73
2023/06/07 18:51:20;;;;;;;9.68;3.90;;;20.20;77.40;;;;;;10467573;28;20408;-70
2023/06/07 18:56:21;;;;;;;9.63;4.15;;;20.20;77.40;;;;;;10480261;28;20029;-70
2023/06/07 19:01:22;;;;;;;9.05;3.75;;;20.40;77.00;;;;;;10482723;28;20099;-70
2023/06/07 19:06:22;;;;;;;9.40;3.58;;;20.50;76.70;;;;;;10483417;28;20430;-70
2023/06/07 19:11:23;;;;;;;6.78;3.50;;;20.60;76.60;;;;;;10490516;28;20851;-70
2023/06/07 19:16:23;;;;;;;5.45;3.13;;;20.70;76.50;;;;;;10482174;28;20066;-70
2023/06/07 19:21:25;;;;;;;8.15;4.10;;;20.70;76.40;;;;;;10482482;28;20115;-70
2023/06/07 19:26:26;;;;;;;6.63;3.35;;;20.80;76.40;;;;;;10474058;28;20043;-69
2023/06/07 19:31:26;;;;;;;6.40;3.38;;;20.70;76.40;;;;;;10486399;28;20017;-70
2023/06/07 19:36:27;;;;;;;6.60;3.45;;;20.80;76.50;;;;;;10485635;28;20025;-70
2023/06/07 19:41:28;;;;;;;6.15;3.53;;;20.70;76.50;;;;;;10489813;28;20039;-70
2023/06/07 19:46:31;;;;;;;7.38;3.60;;;20.70;76.60;;;;;;10482554;28;20082;-70
2023/06/07 19:51:31;;;;;;;4.90;3.50;;;20.60;76.60;;;;;;10487879;28;20043;-70
2023/06/07 19:56:32;;;;;;;8.02;3.20;;;20.60;76.70;;;;;;10483807;28;20056;-71
2023/06/07 20:01:34;;;;;;;5.65;2.85;;;20.60;76.80;;;;;;10479595;28;20098;-71
2023/06/07 20:06:35;;;;;;;7.15;3.42;;;20.50;76.80;;;;;;10470436;28;20024;-71
2023/06/07 20:11:37;;;;;;;6.53;3.53;;;20.40;76.80;;;;;;10474647;28;20652;-71
2023/06/07 20:16:37;;;;;;;7.13;4.00;;;20.40;76.90;;;;;;10477797;28;20031;-71
2023/06/07 20:21:38;;;;;;;5.03;3.50;;;20.40;77.00;;;;;;10481886;28;20111;-70
2023/06/07 20:26:39;;;;;;;5.88;3.20;;;20.40;77.00;;;;;;10490182;28;20437;-71
2023/06/07 20:31:49;;;;;;;8.30;3.70;;;20.30;77.00;;;;;;10478597;28;20016;-71
2023/06/07 20:36:50;;;;;;;6.13;3.28;;;20.30;77.00;;;;;;10472626;28;20021;-71
2023/06/07 20:41:51;;;;;;;7.65;3.33;;;20.30;77.10;;;;;;10479087;28;20024;-70
2023/06/07 20:46:52;;;;;;;7.57;3.67;;;20.20;77.10;;;;;;10478013;28;20037;-70
2023/06/07 20:51:53;;;;;;;8.65;3.75;;;20.10;77.10;;;;;;10473349;28;20020;-70
2023/06/07 20:56:54;;;;;;;5.82;3.38;;;20.10;77.10;;;;;;10478730;28;20035;-70
2023/06/07 21:01:55;;;;;;;7.75;3.22;;;20.10;77.10;;;;;;10477258;28;20023;-70
2023/06/07 21:06:57;;;;;;;3.88;2.95;;;20.00;77.10;;;;;;10474211;28;20021;-70
2023/06/07 21:11:58;;;;;;;9.27;3.70;;;20.00;77.80;;;;;;10472856;28;20107;-70
2023/06/07 21:16:58;;;;;;;7.63;3.60;;;19.90;77.20;;;;;;10475101;28;20019;-70
2023/06/07 21:21:59;;;;;;;4.28;3.10;;;19.90;77.20;;;;;;10484822;28;20020;-70
2023/06/07 21:27:00;;;;;;;9.15;3.83;;;19.80;77.20;;;;;;10489391;28;20115;-71
2023/06/07 21:32:00;;;;;;;6.45;3.70;;;19.80;77.20;;;;;;10482241;28;20068;-70
2023/06/07 21:37:01;;;;;;;5.28;3.47;;;19.80;77.20;;;;;;10482272;28;20028;-70
2023/06/07 21:42:02;;;;;;;6.38;3.60;;;19.70;77.30;;;;;;10488588;28;20032;-70
2023/06/07 21:47:03;;;;;;;5.47;3.28;;;19.70;77.40;;;;;;10493631;28;20024;-71
2023/06/07 21:52:04;;;;;;;7.60;3.80;;;19.60;77.30;;;;;;10476762;28;20021;-71
2023/06/07 21:57:05;;;;;;;7.65;3.88;;;19.60;77.30;;;;;;10471450;28;20166;-70
2023/06/07 22:02:06;;;;;;;7.15;4.15;;;19.50;77.30;;;;;;10479982;28;20321;-70
2023/06/07 22:07:07;;;;;;;7.20;3.83;;;19.50;77.30;;;;;;10477031;28;20017;-70
2023/06/07 22:12:14;;;;;;;7.78;3.50;;;19.40;77.30;;;;;;10470559;28;20032;-70
2023/06/07 22:17:15;;;;;;;5.67;3.30;;;19.40;77.30;;;;;;10475216;28;20435;-70
2023/06/07 22:22:15;;;;;;;9.10;3.63;;;19.30;77.30;;;;;;10481648;28;20029;-70
2023/06/07 22:27:17;;;;;;;5.95;3.13;;;19.30;77.30;;;;;;10476809;28;20021;-70
2023/06/07 22:32:17;;;;;;;6.47;3.47;;;19.30;77.30;;;;;;10478151;28;20021;-70
2023/06/07 22:37:21;;;;;;;6.95;3.30;;;19.20;77.30;;;;;;10474867;28;20524;-70
2023/06/07 22:42:21;;;;;;;7.97;3.28;;;19.20;77.30;;;;;;10476681;28;20029;-71
2023/06/07 22:47:23;;;;;;;5.25;3.60;;;19.10;77.30;;;;;;10480236;28;20032;-71
2023/06/07 22:52:24;;;;;;;7.30;3.72;;;19.10;77.40;;;;;;10472058;28;20236;-70
2023/06/07 22:57:25;;;;;;;7.50;3.55;;;19.10;77.40;;;;;;10479034;28;20052;-70
2023/06/07 23:02:28;;;;;;;5.53;3.55;;;19.10;77.50;;;;;;10476658;28;20311;-71
2023/06/07 23:07:31;;;;;;;6.97;3.33;;;19.00;77.40;;;;;;10485347;28;20516;-70
2023/06/07 23:12:32;;;;;;;7.20;3.35;;;18.90;77.40;;;;;;10487294;28;20033;-70
2023/06/07 23:17:33;;;;;;;7.10;3.70;;;18.90;77.50;;;;;;10484676;28;20021;-70
2023/06/07 23:22:34;;;;;;;5.78;3.25;;;18.80;77.40;;;;;;10478101;28;20024;-71
2023/06/07 23:27:34;;;;;;;8.15;3.50;;;18.80;77.50;;;;;;10471743;28;20073;-70
2023/06/07 23:32:35;;;;;;;6.15;3.75;;;18.70;77.40;;;;;;10475920;28;20511;-70
2023/06/07 23:37:36;;;;;;;6.40;3.70;;;18.80;77.50;;;;;;10477785;28;20111;-71
2023/06/07 23:42:36;;;;;;;6.88;3.90;;;18.70;77.50;;;;;;10478931;28;20021;-71
2023/06/07 23:47:37;;;;;;;6.50;3.55;;;18.60;77.50;;;;;;10480698;28;20029;-71
2023/06/07 23:52:40;;;;;;;5.95;3.22;;;18.60;77.50;;;;;;10483029;28;20479;-70
2023/06/07 23:57:41;;;;;;;8.52;3.35;;;18.60;77.50;;;;;;10480220;28;20020;-71
